sensor_id;sensor_type;location;lat;lon;timestamp;pressure;altitude;pressure_sealevel;temperature;humidity
64679;BME280;51094;53.864;27.676;2023-09-12T00:02:14;99297.56;;;15.47;61.37
64679;BME280;51094;53.864;27.676;2023-09-12T00:04:41;99254.97;;;15.16;60.99
64679;BME280;51094;53.864;27.676;2023-09-12T00:07:07;99280.31;;;15.25;61.63
64679;BME280;51094;53.864;27.676;2023-09-12T00:09:34;99299.50;;;15.35;62.02
64679;BME280;51094;53.864;27.676;2023-09-12T00:12:01;99304.31;;;15.30;61.56
64679;BME280;51094;53.864;27.676;2023-09-12T00:14:29;99299.75;;;15.22;61.79
64679;BME280;51094;53.864;27.676;2023-09-12T00:16:56;99307.19;;;15.17;61.59
64679;BME280;51094;53.864;27.676;2023-09-12T00:19:23;99299.19;;;15.19;62.12
64679;BME280;51094;53.864;27.676;2023-09-12T00:21:49;99306.91;;;15.20;61.83
64679;BME280;51094;53.864;27.676;2023-09-12T00:24:16;99297.28;;;15.11;62.11
64679;BME280;51094;53.864;27.676;2023-09-12T00:26:43;99290.94;;;15.04;62.26
64679;BME280;51094;53.864;27.676;2023-09-12T00:29:10;99307.06;;;15.09;62.20
64679;BME280;51094;53.864;27.676;2023-09-12T00:31:37;99259.88;;;14.80;61.98
64679;BME280;51094;53.864;27.676;2023-09-12T00:34:05;99304.03;;;15.04;62.34
64679;BME280;51094;53.864;27.676;2023-09-12T00:36:31;99178.91;;;14.29;62.44
64679;BME280;51094;53.864;27.676;2023-09-12T00:38:59;99299.75;;;15.03;62.68
64679;BME280;51094;53.864;27.676;2023-09-12T00:41:26;99204.38;;;14.37;62.39
64679;BME280;51094;53.864;27.676;2023-09-12T00:43:53;99310.47;;;14.90;62.55
64679;BME280;51094;53.864;27.676;2023-09-12T00:46:21;99274.88;;;14.69;63.02
64679;BME280;51094;53.864;27.676;2023-09-12T00:48:51;99299.69;;;14.84;63.05
64679;BME280;51094;53.864;27.676;2023-09-12T00:51:20;99299.28;;;14.88;62.90
64679;BME280;51094;53.864;27.676;2023-09-12T00:53:48;99311.81;;;14.85;63.00
64679;BME280;51094;53.864;27.676;2023-09-12T00:56:15;99294.03;;;14.69;63.01
64679;BME280;51094;53.864;27.676;2023-09-12T00:58:43;99313.19;;;14.79;63.16
64679;BME280;51094;53.864;27.676;2023-09-12T01:01:10;99295.25;;;14.75;62.84
64679;BME280;51094;53.864;27.676;2023-09-12T01:03:37;99275.53;;;14.61;62.93
64679;BME280;51094;53.864;27.676;2023-09-12T01:06:06;99305.19;;;14.81;63.24
64679;BME280;51094;53.864;27.676;2023-09-12T01:08:35;99234.69;;;14.39;63.03
64679;BME280;51094;53.864;27.676;2023-09-12T01:11:04;99302.44;;;14.73;63.34
64679;BME280;51094;53.864;27.676;2023-09-12T01:13:31;99324.34;;;14.81;63.05
64679;BME280;51094;53.864;27.676;2023-09-12T01:15:58;99305.06;;;14.82;63.37
64679;BME280;51094;53.864;27.676;2023-09-12T01:18:25;99313.19;;;14.79;63.05
64679;BME280;51094;53.864;27.676;2023-09-12T01:29:40;99276.78;;;14.57;63.09
64679;BME280;51094;53.864;27.676;2023-09-12T01:32:08;99257.16;;;14.42;63.51
64679;BME280;51094;53.864;27.676;2023-09-12T01:34:37;99254.91;;;14.37;63.33
64679;BME280;51094;53.864;27.676;2023-09-12T01:37:05;99273.41;;;14.45;62.99
64679;BME280;51094;53.864;27.676;2023-09-12T01:39:32;99306.28;;;14.69;62.99
64679;BME280;51094;53.864;27.676;2023-09-12T01:42:00;99294.78;;;14.50;63.56
64679;BME280;51094;53.864;27.676;2023-09-12T01:44:30;99314.13;;;14.69;63.21
64679;BME280;51094;53.864;27.676;2023-09-12T01:47:03;99379.25;;;14.62;63.06
64679;BME280;51094;53.864;27.676;2023-09-12T01:49:33;99289.47;;;14.41;63.63
64679;BME280;51094;53.864;27.676;2023-09-12T01:52:01;99304.81;;;14.45;63.75
64679;BME280;51094;53.864;27.676;2023-09-12T01:54:29;99341.31;;;14.47;63.52
64679;BME280;51094;53.864;27.676;2023-09-12T01:56:58;99319.13;;;14.41;63.42
64679;BME280;51094;53.864;27.676;2023-09-12T01:59:25;99192.41;;;13.63;63.38
64679;BME280;51094;53.864;27.676;2023-09-12T02:01:53;99317.00;;;14.35;63.75
64679;BME280;51094;53.864;27.676;2023-09-12T02:04:21;99297.13;;;14.23;63.28
64679;BME280;51094;53.864;27.676;2023-09-12T02:06:49;99310.22;;;14.32;63.56
64679;BME280;51094;53.864;27.676;2023-09-12T02:09:17;99291.91;;;14.23;63.67
64679;BME280;51094;53.864;27.676;2023-09-12T02:11:46;99311.06;;;14.33;64.00
64679;BME280;51094;53.864;27.676;2023-09-12T02:14:14;99309.81;;;14.27;63.65
64679;BME280;51094;53.864;27.676;2023-09-12T02:16:42;99268.72;;;13.88;63.67
64679;BME280;51094;53.864;27.676;2023-09-12T02:19:11;99288.28;;;13.93;63.75
64679;BME280;51094;53.864;27.676;2023-09-12T02:21:38;99312.84;;;14.02;63.89
64679;BME280;51094;53.864;27.676;2023-09-12T02:24:07;99311.88;;;14.03;64.48
64679;BME280;51094;53.864;27.676;2023-09-12T02:26:35;99314.22;;;14.06;63.90
64679;BME280;51094;53.864;27.676;2023-09-12T02:29:03;99317.22;;;14.02;63.93
64679;BME280;51094;53.864;27.676;2023-09-12T02:31:32;99294.56;;;13.81;64.30
64679;BME280;51094;53.864;27.676;2023-09-12T02:33:59;99322.78;;;13.87;64.51
64679;BME280;51094;53.864;27.676;2023-09-12T02:36:28;99274.97;;;13.55;64.79
64679;BME280;51094;53.864;27.676;2023-09-12T02:38:55;99318.50;;;13.86;64.39
64679;BME280;51094;53.864;27.676;2023-09-12T02:41:22;99318.50;;;13.86;64.38
64679;BME280;51094;53.864;27.676;2023-09-12T02:43:49;99325.13;;;13.90;64.77
64679;BME280;51094;53.864;27.676;2023-09-12T02:46:15;99325.94;;;13.81;64.16
64679;BME280;51094;53.864;27.676;2023-09-12T02:48:42;99306.47;;;13.74;64.23
64679;BME280;51094;53.864;27.676;2023-09-12T02:51:11;99268.84;;;13.24;64.39
64679;BME280;51094;53.864;27.676;2023-09-12T02:53:38;99268.78;;;13.56;64.60
64679;BME280;51094;53.864;27.676;2023-09-12T02:56:05;99310.19;;;13.72;64.66
64679;BME280;51094;53.864;27.676;2023-09-12T02:58:32;99321.94;;;13.66;64.82
64679;BME280;51094;53.864;27.676;2023-09-12T03:00:59;99353.53;;;13.74;64.46
64679;BME280;51094;53.864;27.676;2023-09-12T03:03:28;99252.66;;;13.30;64.68
64679;BME280;51094;53.864;27.676;2023-09-12T03:05:59;99314.41;;;13.52;65.04
64679;BME280;51094;53.864;27.676;2023-09-12T03:08:26;99200.28;;;12.79;65.20
64679;BME280;51094;53.864;27.676;2023-09-12T03:10:57;99324.16;;;13.50;64.95
64679;BME280;51094;53.864;27.676;2023-09-12T03:13:25;99323.91;;;13.53;65.31
64679;BME280;51094;53.864;27.676;2023-09-12T03:15:52;99324.38;;;13.58;65.14
64679;BME280;51094;53.864;27.676;2023-09-12T03:18:19;99319.84;;;13.60;65.29
64679;BME280;51094;53.864;27.676;2023-09-12T03:20:47;99295.38;;;13.40;65.19
64679;BME280;51094;53.864;27.676;2023-09-12T03:23:13;99271.56;;;13.22;65.43
64679;BME280;51094;53.864;27.676;2023-09-12T03:25:40;99253.53;;;13.08;65.12
64679;BME280;51094;53.864;27.676;2023-09-12T03:28:07;99309.38;;;13.39;65.19
64679;BME280;51094;53.864;27.676;2023-09-12T03:30:36;99325.81;;;13.51;65.22
64679;BME280;51094;53.864;27.676;2023-09-12T03:33:05;99293.16;;;13.24;65.11
64679;BME280;51094;53.864;27.676;2023-09-12T03:35:33;99273.59;;;13.19;65.80
64679;BME280;51094;53.864;27.676;2023-09-12T03:38:01;99310.00;;;13.31;65.52
64679;BME280;51094;53.864;27.676;2023-09-12T03:40:29;99332.44;;;13.55;65.54
64679;BME280;51094;53.864;27.676;2023-09-12T03:42:57;99311.09;;;13.50;65.34
64679;BME280;51094;53.864;27.676;2023-09-12T03:45:24;99297.41;;;13.37;65.24
64679;BME280;51094;53.864;27.676;2023-09-12T03:47:52;99309.69;;;13.46;65.56
64679;BME280;51094;53.864;27.676;2023-09-12T03:50:21;99265.16;;;13.26;65.47
64679;BME280;51094;53.864;27.676;2023-09-12T03:52:48;99296.56;;;13.36;65.11
64679;BME280;51094;53.864;27.676;2023-09-12T03:55:15;99168.53;;;12.62;65.61
64679;BME280;51094;53.864;27.676;2023-09-12T03:57:42;99317.16;;;13.50;65.32
64679;BME280;51094;53.864;27.676;2023-09-12T04:00:10;99317.97;;;13.51;65.62
64679;BME280;51094;53.864;27.676;2023-09-12T04:02:43;99303.25;;;13.50;65.60
64679;BME280;51094;53.864;27.676;2023-09-12T04:05:10;99280.78;;;13.38;65.85
64679;BME280;51094;53.864;27.676;2023-09-12T04:07:37;99289.69;;;13.35;65.66
64679;BME280;51094;53.864;27.676;2023-09-12T04:10:04;99311.59;;;13.44;65.89
64679;BME280;51094;53.864;27.676;2023-09-12T04:12:31;99314.91;;;13.46;66.10
64679;BME280;51094;53.864;27.676;2023-09-12T04:14:58;99217.78;;;12.99;65.83
64679;BME280;51094;53.864;27.676;2023-09-12T04:17:25;99312.97;;;13.59;66.06
64679;BME280;51094;53.864;27.676;2023-09-12T04:19:52;99229.84;;;13.00;65.72
64679;BME280;51094;53.864;27.676;2023-09-12T04:22:19;99272.50;;;13.32;66.00
64679;BME280;51094;53.864;27.676;2023-09-12T04:24:49;99213.63;;;12.96;65.66
64679;BME280;51094;53.864;27.676;2023-09-12T04:27:16;99297.09;;;13.51;65.65
64679;BME280;51094;53.864;27.676;2023-09-12T04:29:43;99307.09;;;13.67;66.18
64679;BME280;51094;53.864;27.676;2023-09-12T04:32:11;99319.03;;;13.80;65.38
64679;BME280;51094;53.864;27.676;2023-09-12T04:34:38;99282.06;;;13.64;65.42
64679;BME280;51094;53.864;27.676;2023-09-12T04:37:05;99326.78;;;13.91;65.21
64679;BME280;51094;53.864;27.676;2023-09-12T04:39:33;99325.97;;;13.91;65.43
64679;BME280;51094;53.864;27.676;2023-09-12T04:42:00;99322.41;;;13.92;65.09
64679;BME280;51094;53.864;27.676;2023-09-12T04:44:27;99278.00;;;13.71;65.39
64679;BME280;51094;53.864;27.676;2023-09-12T04:46:54;99314.56;;;14.13;65.10
64679;BME280;51094;53.864;27.676;2023-09-12T04:49:21;99294.66;;;14.01;64.79
64679;BME280;51094;53.864;27.676;2023-09-12T04:51:48;99302.44;;;14.12;64.82
64679;BME280;51094;53.864;27.676;2023-09-12T04:54:15;99316.72;;;14.28;64.80
64679;BME280;51094;53.864;27.676;2023-09-12T04:56:41;99301.00;;;14.28;64.87
64679;BME280;51094;53.864;27.676;2023-09-12T04:59:08;99312.19;;;14.40;64.45
64679;BME280;51094;53.864;27.676;2023-09-12T05:01:35;99263.91;;;14.14;63.86
64679;BME280;51094;53.864;27.676;2023-09-12T05:04:03;99323.31;;;14.53;63.96
64679;BME280;51094;53.864;27.676;2023-09-12T05:06:30;99251.41;;;14.17;63.76
64679;BME280;51094;53.864;27.676;2023-09-12T05:08:57;99324.19;;;14.73;63.76
64679;BME280;51094;53.864;27.676;2023-09-12T05:11:25;99316.78;;;14.88;63.75
64679;BME280;51094;53.864;27.676;2023-09-12T05:13:52;99317.66;;;14.98;63.05
64679;BME280;51094;53.864;27.676;2023-09-12T05:16:19;99322.50;;;15.12;62.52
64679;BME280;51094;53.864;27.676;2023-09-12T05:18:46;99324.72;;;15.26;61.19
64679;BME280;51094;53.864;27.676;2023-09-12T05:21:15;99325.97;;;15.32;60.63
64679;BME280;51094;53.864;27.676;2023-09-12T05:23:42;99328.72;;;15.40;60.50
64679;BME280;51094;53.864;27.676;2023-09-12T05:26:09;99331.34;;;15.50;60.89
64679;BME280;51094;53.864;27.676;2023-09-12T05:28:36;99332.88;;;15.52;60.50
64679;BME280;51094;53.864;27.676;2023-09-12T05:31:03;99306.13;;;15.49;60.46
64679;BME280;51094;53.864;27.676;2023-09-12T05:33:31;99254.66;;;15.28;59.32
64679;BME280;51094;53.864;27.676;2023-09-12T05:36:00;99312.19;;;15.69;59.48
64679;BME280;51094;53.864;27.676;2023-09-12T05:38:27;99333.16;;;15.78;58.47
64679;BME280;51094;53.864;27.676;2023-09-12T05:40:56;99317.03;;;15.73;58.21
64679;BME280;51094;53.864;27.676;2023-09-12T05:43:23;99267.09;;;15.46;57.49
64679;BME280;51094;53.864;27.676;2023-09-12T05:45:51;99326.41;;;15.85;58.01
64679;BME280;51094;53.864;27.676;2023-09-12T05:48:19;99192.25;;;15.14;57.61
64679;BME280;51094;53.864;27.676;2023-09-12T05:50:46;99338.34;;;16.07;57.69
64679;BME280;51094;53.864;27.676;2023-09-12T05:53:13;99337.66;;;16.15;57.65
64679;BME280;51094;53.864;27.676;2023-09-12T05:55:41;99293.25;;;15.94;57.38
64679;BME280;51094;53.864;27.676;2023-09-12T05:58:08;99269.81;;;15.83;57.22
64679;BME280;51094;53.864;27.676;2023-09-12T06:00:35;99341.34;;;16.32;57.08
64679;BME280;51094;53.864;27.676;2023-09-12T06:03:02;99334.69;;;16.37;57.05
64679;BME280;51094;53.864;27.676;2023-09-12T06:05:30;99339.19;;;16.54;56.62
64679;BME280;51094;53.864;27.676;2023-09-12T06:07:57;99326.34;;;16.51;56.46
64679;BME280;51094;53.864;27.676;2023-09-12T06:10:23;99363.19;;;16.69;56.53
64679;BME280;51094;53.864;27.676;2023-09-12T06:12:50;99337.16;;;16.85;56.76
64679;BME280;51094;53.864;27.676;2023-09-12T06:15:17;99342.72;;;17.00;56.40
64679;BME280;51094;53.864;27.676;2023-09-12T06:17:44;99332.97;;;17.10;56.00
64679;BME280;51094;53.864;27.676;2023-09-12T06:20:11;99337.66;;;17.16;55.40
64679;BME280;51094;53.864;27.676;2023-09-12T06:22:38;99324.38;;;17.18;55.24
64679;BME280;51094;53.864;27.676;2023-09-12T06:25:05;99279.00;;;16.98;55.54
64679;BME280;51094;53.864;27.676;2023-09-12T06:27:32;99340.06;;;17.45;54.85
64679;BME280;51094;53.864;27.676;2023-09-12T06:29:59;99335.56;;;17.55;54.56
64679;BME280;51094;53.864;27.676;2023-09-12T06:32:26;99275.06;;;17.29;54.10
64679;BME280;51094;53.864;27.676;2023-09-12T06:34:53;99323.91;;;17.58;53.81
64679;BME280;51094;53.864;27.676;2023-09-12T06:37:20;99219.19;;;17.10;53.81
64679;BME280;51094;53.864;27.676;2023-09-12T06:39:50;99341.63;;;17.91;53.24
64679;BME280;51094;53.864;27.676;2023-09-12T06:42:17;99315.94;;;17.85;52.95
64679;BME280;51094;53.864;27.676;2023-09-12T06:44:45;99332.88;;;18.09;52.32
64679;BME280;51094;53.864;27.676;2023-09-12T06:47:12;99348.88;;;18.15;51.66
64679;BME280;51094;53.864;27.676;2023-09-12T06:49:39;99315.25;;;17.83;51.71
64679;BME280;51094;53.864;27.676;2023-09-12T06:52:06;99348.81;;;18.33;51.75
64679;BME280;51094;53.864;27.676;2023-09-12T06:54:33;99317.84;;;18.19;50.44
64679;BME280;51094;53.864;27.676;2023-09-12T06:57:00;99330.09;;;18.36;50.46
64679;BME280;51094;53.864;27.676;2023-09-12T06:59:27;99364.97;;;18.64;50.02
64679;BME280;51094;53.864;27.676;2023-09-12T07:01:54;99364.06;;;18.81;50.84
64679;BME280;51094;53.864;27.676;2023-09-12T07:04:21;99304.88;;;18.59;49.15
64679;BME280;51094;53.864;27.676;2023-09-12T07:06:48;99356.00;;;18.83;49.14
64679;BME280;51094;53.864;27.676;2023-09-12T07:09:15;99339.69;;;18.79;49.15
64679;BME280;51094;53.864;27.676;2023-09-12T07:11:43;99332.53;;;18.98;49.92
64679;BME280;51094;53.864;27.676;2023-09-12T07:14:10;99344.78;;;19.23;48.23
64679;BME280;51094;53.864;27.676;2023-09-12T07:16:37;99315.97;;;19.30;47.75
64679;BME280;51094;53.864;27.676;2023-09-12T07:19:04;99347.50;;;19.72;47.80
64679;BME280;51094;53.864;27.676;2023-09-12T07:21:32;99351.97;;;19.87;47.78
64679;BME280;51094;53.864;27.676;2023-09-12T07:23:59;99346.38;;;19.90;46.06
64679;BME280;51094;53.864;27.676;2023-09-12T07:26:26;99335.59;;;20.00;45.79
64679;BME280;51094;53.864;27.676;2023-09-12T07:28:54;99356.88;;;20.31;45.16
64679;BME280;51094;53.864;27.676;2023-09-12T07:31:21;99343.81;;;20.38;44.28
64679;BME280;51094;53.864;27.676;2023-09-12T07:33:48;99368.38;;;20.54;44.79
64679;BME280;51094;53.864;27.676;2023-09-12T07:36:15;99309.47;;;20.38;45.25
64679;BME280;51094;53.864;27.676;2023-09-12T07:38:42;99339.44;;;20.69;44.21
64679;BME280;51094;53.864;27.676;2023-09-12T07:41:12;99369.59;;;20.83;44.67
64679;BME280;51094;53.864;27.676;2023-09-12T07:43:38;99349.56;;;20.97;43.91
64679;BME280;51094;53.864;27.676;2023-09-12T07:46:07;99309.81;;;20.82;44.12
64679;BME280;51094;53.864;27.676;2023-09-12T07:48:34;99355.38;;;21.23;43.54
64679;BME280;51094;53.864;27.676;2023-09-12T07:51:01;99336.25;;;21.13;43.16
64679;BME280;51094;53.864;27.676;2023-09-12T07:53:28;99302.00;;;20.88;43.59
64679;BME280;51094;53.864;27.676;2023-09-12T07:55:59;99354.53;;;21.31;43.51
64679;BME280;51094;53.864;27.676;2023-09-12T07:58:26;99349.09;;;21.55;43.48
64679;BME280;51094;53.864;27.676;2023-09-12T08:00:52;99188.63;;;20.79;43.75
64679;BME280;51094;53.864;27.676;2023-09-12T08:03:19;99337.06;;;21.90;42.77
64679;BME280;51094;53.864;27.676;2023-09-12T08:05:57;99346.06;;;22.04;42.44
64679;BME280;51094;53.864;27.676;2023-09-12T08:08:24;99354.19;;;22.17;42.57
64679;BME280;51094;53.864;27.676;2023-09-12T08:10:51;99306.28;;;21.89;42.15
64679;BME280;51094;53.864;27.676;2023-09-12T08:13:18;99321.50;;;22.10;41.40
64679;BME280;51094;53.864;27.676;2023-09-12T08:15:45;99285.28;;;21.87;40.26
64679;BME280;51094;53.864;27.676;2023-09-12T08:18:12;99339.78;;;22.19;41.00
64679;BME280;51094;53.864;27.676;2023-09-12T08:20:39;99322.88;;;22.20;41.05
64679;BME280;51094;53.864;27.676;2023-09-12T08:23:06;99289.47;;;22.05;40.80
64679;BME280;51094;53.864;27.676;2023-09-12T08:25:33;99257.53;;;21.83;40.86
64679;BME280;51094;53.864;27.676;2023-09-12T08:28:00;99211.34;;;21.34;40.53
64679;BME280;51094;53.864;27.676;2023-09-12T08:30:26;99311.41;;;22.43;39.78
64679;BME280;51094;53.864;27.676;2023-09-12T08:32:56;99335.22;;;22.72;39.92
64679;BME280;51094;53.864;27.676;2023-09-12T08:35:23;99313.56;;;22.69;39.97
64679;BME280;51094;53.864;27.676;2023-09-12T08:37:49;99348.63;;;23.15;39.49
64679;BME280;51094;53.864;27.676;2023-09-12T08:40:16;99360.94;;;23.22;38.69
64679;BME280;51094;53.864;27.676;2023-09-12T08:42:44;99347.50;;;23.24;38.94
64679;BME280;51094;53.864;27.676;2023-09-12T08:45:13;99340.03;;;23.13;38.35
64679;BME280;51094;53.864;27.676;2023-09-12T08:47:44;99350.41;;;23.50;37.31
64679;BME280;51094;53.864;27.676;2023-09-12T08:50:13;99309.16;;;23.27;37.08
64679;BME280;51094;53.864;27.676;2023-09-12T08:52:41;99197.66;;;22.77;36.14
64679;BME280;51094;53.864;27.676;2023-09-12T08:55:31;99346.97;;;23.71;36.23
64679;BME280;51094;53.864;27.676;2023-09-12T08:58:02;99344.38;;;23.78;35.93
64679;BME280;51094;53.864;27.676;2023-09-12T09:00:29;99347.19;;;23.98;36.34
64679;BME280;51094;53.864;27.676;2023-09-12T09:02:57;99290.53;;;23.91;35.62
64679;BME280;51094;53.864;27.676;2023-09-12T09:05:27;99371.63;;;24.36;35.61
64679;BME280;51094;53.864;27.676;2023-09-12T09:07:54;99346.38;;;24.53;35.45
64679;BME280;51094;53.864;27.676;2023-09-12T09:10:22;99301.13;;;24.40;34.71
64679;BME280;51094;53.864;27.676;2023-09-12T09:13:08;99300.38;;;24.52;34.79
64679;BME280;51094;53.864;27.676;2023-09-12T09:15:37;99330.75;;;24.78;34.52
64679;BME280;51094;53.864;27.676;2023-09-12T09:18:09;99335.81;;;25.07;33.89
64679;BME280;51094;53.864;27.676;2023-09-12T09:20:38;99333.56;;;25.11;33.47
64679;BME280;51094;53.864;27.676;2023-09-12T09:23:10;99339.91;;;25.16;33.22
64679;BME280;51094;53.864;27.676;2023-09-12T09:25:42;99365.75;;;25.29;32.84
64679;BME280;51094;53.864;27.676;2023-09-12T09:28:17;99333.25;;;25.53;32.68
64679;BME280;51094;53.864;27.676;2023-09-12T09:30:46;99349.88;;;25.69;32.07
64679;BME280;51094;53.864;27.676;2023-09-12T09:33:14;99321.59;;;25.68;32.06
64679;BME280;51094;53.864;27.676;2023-09-12T09:35:42;99247.66;;;25.43;31.51
64679;BME280;51094;53.864;27.676;2023-09-12T09:38:10;99334.75;;;25.96;31.41
64679;BME280;51094;53.864;27.676;2023-09-12T09:40:39;99329.38;;;26.09;32.05
64679;BME280;51094;53.864;27.676;2023-09-12T09:43:06;99314.44;;;26.34;31.33
64679;BME280;51094;53.864;27.676;2023-09-12T09:45:42;99341.22;;;26.52;30.66
64679;BME280;51094;53.864;27.676;2023-09-12T09:48:10;99328.69;;;26.66;30.51
64679;BME280;51094;53.864;27.676;2023-09-12T09:50:44;99325.81;;;26.68;30.84
64679;BME280;51094;53.864;27.676;2023-09-12T09:53:10;99289.88;;;26.70;30.86
64679;BME280;51094;53.864;27.676;2023-09-12T09:55:37;99281.44;;;26.80;30.89
64679;BME280;51094;53.864;27.676;2023-09-12T09:58:08;99264.41;;;26.81;30.18
64679;BME280;51094;53.864;27.676;2023-09-12T10:00:36;99333.25;;;27.42;29.69
64679;BME280;51094;53.864;27.676;2023-09-12T10:03:04;99309.25;;;27.35;29.94
64679;BME280;51094;53.864;27.676;2023-09-12T10:05:37;99338.03;;;27.71;30.06
64679;BME280;51094;53.864;27.676;2023-09-12T10:08:06;99342.25;;;27.79;29.82
64679;BME280;51094;53.864;27.676;2023-09-12T10:10:38;99296.94;;;27.91;28.36
64679;BME280;51094;53.864;27.676;2023-09-12T10:13:05;99331.22;;;28.19;28.15
64679;BME280;51094;53.864;27.676;2023-09-12T10:15:34;99323.47;;;28.35;28.64
64679;BME280;51094;53.864;27.676;2023-09-12T10:18:09;99280.09;;;28.33;27.77
64679;BME280;51094;53.864;27.676;2023-09-12T10:20:47;99323.06;;;28.93;27.00
64679;BME280;51094;53.864;27.676;2023-09-12T10:23:19;99321.50;;;28.86;27.22
64679;BME280;51094;53.864;27.676;2023-09-12T10:25:50;99278.22;;;28.70;26.94
64679;BME280;51094;53.864;27.676;2023-09-12T10:28:18;99278.91;;;28.84;26.92
64679;BME280;51094;53.864;27.676;2023-09-12T10:30:46;99266.84;;;28.93;27.10
64679;BME280;51094;53.864;27.676;2023-09-12T10:33:18;99179.50;;;28.51;27.06
64679;BME280;51094;53.864;27.676;2023-09-12T10:35:46;99311.28;;;29.54;26.82
64679;BME280;51094;53.864;27.676;2023-09-12T10:38:15;99309.09;;;29.98;26.54
64679;BME280;51094;53.864;27.676;2023-09-12T10:40:44;99247.34;;;29.93;25.21
64679;BME280;51094;53.864;27.676;2023-09-12T10:43:12;99310.06;;;30.62;26.01
64679;BME280;51094;53.864;27.676;2023-09-12T10:45:41;99310.34;;;30.77;25.29
64679;BME280;51094;53.864;27.676;2023-09-12T10:48:09;99282.13;;;30.74;25.29
64679;BME280;51094;53.864;27.676;2023-09-12T10:50:38;99290.81;;;31.22;24.82
64679;BME280;51094;53.864;27.676;2023-09-12T10:53:13;99301.53;;;31.50;24.20
64679;BME280;51094;53.864;27.676;2023-09-12T10:55:41;99302.09;;;31.52;24.69
64679;BME280;51094;53.864;27.676;2023-09-12T10:58:09;99303.34;;;31.78;23.74
64679;BME280;51094;53.864;27.676;2023-09-12T11:00:37;99295.34;;;31.83;24.11
64679;BME280;51094;53.864;27.676;2023-09-12T11:03:35;99293.72;;;31.82;23.44
64679;BME280;51094;53.864;27.676;2023-09-12T11:06:02;99115.56;;;30.53;23.10
64679;BME280;51094;53.864;27.676;2023-09-12T11:08:35;99294.00;;;32.19;23.85
64679;BME280;51094;53.864;27.676;2023-09-12T11:11:20;99270.75;;;31.91;23.13
64679;BME280;51094;53.864;27.676;2023-09-12T11:14:03;98861.94;;;29.09;23.37
64679;BME280;51094;53.864;27.676;2023-09-12T11:16:30;99311.22;;;32.01;23.38
64679;BME280;51094;53.864;27.676;2023-09-12T11:19:15;99285.53;;;32.27;22.98
64679;BME280;51094;53.864;27.676;2023-09-12T11:21:43;99298.09;;;33.09;21.75
64679;BME280;51094;53.864;27.676;2023-09-12T11:24:12;99302.41;;;32.83;22.35
64679;BME280;51094;53.864;27.676;2023-09-12T11:26:58;99298.91;;;32.22;23.04
64679;BME280;51094;53.864;27.676;2023-09-12T11:29:37;99296.25;;;31.72;23.08
64679;BME280;51094;53.864;27.676;2023-09-12T11:32:05;99294.47;;;31.16;24.03
64679;BME280;51094;53.864;27.676;2023-09-12T11:34:41;99294.03;;;30.55;24.85
64679;BME280;51094;53.864;27.676;2023-09-12T11:37:09;99135.38;;;29.36;24.98
64679;BME280;51094;53.864;27.676;2023-09-12T11:39:37;99288.34;;;30.52;25.15
64679;BME280;51094;53.864;27.676;2023-09-12T11:42:10;99262.03;;;30.25;25.49
64679;BME280;51094;53.864;27.676;2023-09-12T11:44:38;99290.97;;;30.23;25.71
64679;BME280;51094;53.864;27.676;2023-09-12T11:47:05;99253.59;;;30.33;25.19
64679;BME280;51094;53.864;27.676;2023-09-12T11:49:37;99230.38;;;30.39;25.20
64679;BME280;51094;53.864;27.676;2023-09-12T11:52:10;99285.78;;;30.45;25.34
64679;BME280;51094;53.864;27.676;2023-09-12T11:54:37;99291.91;;;32.04;24.03
64679;BME280;51094;53.864;27.676;2023-09-12T11:57:04;99239.09;;;33.39;23.58
64679;BME280;51094;53.864;27.676;2023-09-12T11:59:37;99254.19;;;33.72;22.00
64679;BME280;51094;53.864;27.676;2023-09-12T12:02:09;99268.59;;;35.03;20.80
64679;BME280;51094;53.864;27.676;2023-09-12T12:04:38;98859.41;;;33.53;18.90
64679;BME280;51094;53.864;27.676;2023-09-12T12:07:06;99275.22;;;37.07;19.10
64679;BME280;51094;53.864;27.676;2023-09-12T12:09:34;99274.81;;;37.63;18.39
64679;BME280;51094;53.864;27.676;2023-09-12T12:12:11;99274.25;;;36.08;18.95
64679;BME280;51094;53.864;27.676;2023-09-12T12:14:39;99280.56;;;36.78;18.98
64679;BME280;51094;53.864;27.676;2023-09-12T12:17:08;99272.63;;;37.94;17.98
64679;BME280;51094;53.864;27.676;2023-09-12T12:19:36;99263.53;;;39.32;17.16
64679;BME280;51094;53.864;27.676;2023-09-12T12:22:07;99263.91;;;40.45;15.76
64679;BME280;51094;53.864;27.676;2023-09-12T12:27:06;99265.69;;;41.35;14.82
64679;BME280;51094;53.864;27.676;2023-09-12T12:29:36;99261.53;;;42.31;14.57
64679;BME280;51094;53.864;27.676;2023-09-12T12:32:05;99171.91;;;41.93;13.81
64679;BME280;51094;53.864;27.676;2023-09-12T12:34:32;99267.75;;;42.79;13.64
64679;BME280;51094;53.864;27.676;2023-09-12T12:37:19;99259.59;;;41.16;14.50
64679;BME280;51094;53.864;27.676;2023-09-12T12:39:47;99248.50;;;38.16;16.57
64679;BME280;51094;53.864;27.676;2023-09-12T12:42:14;99251.59;;;35.28;19.00
64679;BME280;51094;53.864;27.676;2023-09-12T12:44:41;99248.91;;;33.88;20.82
64679;BME280;51094;53.864;27.676;2023-09-12T12:47:09;99254.28;;;32.70;22.41
64679;BME280;51094;53.864;27.676;2023-09-12T12:49:37;99258.03;;;31.36;24.23
64679;BME280;51094;53.864;27.676;2023-09-12T12:52:09;99247.16;;;30.46;25.31
64679;BME280;51094;53.864;27.676;2023-09-12T12:54:37;99199.22;;;29.51;26.62
64679;BME280;51094;53.864;27.676;2023-09-12T12:57:04;99044.66;;;28.28;26.79
64679;BME280;51094;53.864;27.676;2023-09-12T12:59:31;99131.75;;;28.66;27.25
64679;BME280;51094;53.864;27.676;2023-09-12T13:02:03;99088.94;;;28.24;27.46
64679;BME280;51094;53.864;27.676;2023-09-12T13:04:37;98979.19;;;27.23;27.69
64679;BME280;51094;53.864;27.676;2023-09-12T13:07:05;99233.59;;;28.53;28.54
64679;BME280;51094;53.864;27.676;2023-09-12T13:09:32;99227.06;;;28.30;28.63